createdAt,value
2022-09-24T00:01:53.318Z,13.40
2022-09-24T00:04:23.960Z,13.50
2022-09-24T00:06:52.078Z,13.50
2022-09-24T00:09:22.342Z,13.50
2022-09-24T00:11:52.316Z,13.40
2022-09-24T00:14:21.165Z,13.40
2022-09-24T00:16:49.687Z,13.40
2022-09-24T00:19:19.228Z,13.40
2022-09-24T00:21:47.360Z,13.50
2022-09-24T00:24:37.782Z,13.50
2022-09-24T00:27:06.533Z,13.40
2022-09-24T00:29:36.121Z,13.30
2022-09-24T00:32:06.704Z,13.20
2022-09-24T00:34:36.280Z,13.20
2022-09-24T00:37:04.428Z,13.20
2022-09-24T00:39:32.526Z,13.20
2022-09-24T00:42:00.581Z,13.10
2022-09-24T00:44:54.876Z,13.10
2022-09-24T00:47:33.492Z,13.20
2022-09-24T00:50:13.985Z,13.20
2022-09-24T00:52:46.620Z,13.00
2022-09-24T00:55:16.204Z,13.00
2022-09-24T00:57:46.165Z,13.10
2022-09-24T01:00:15.225Z,13.00
2022-09-24T01:02:47.505Z,13.00
2022-09-24T01:05:17.156Z,13.00
2022-09-24T01:07:48.216Z,12.90
2022-09-24T01:10:38.177Z,12.70
2022-09-24T01:13:19.841Z,12.60
2022-09-24T01:15:52.936Z,12.70
2022-09-24T01:18:30.643Z,12.60
2022-09-24T01:21:19.964Z,12.60
2022-09-24T01:24:12.202Z,12.50
2022-09-24T01:26:52.764Z,12.60
2022-09-24T01:29:37.522Z,12.60
2022-09-24T01:32:08.800Z,12.60
2022-09-24T01:34:41.667Z,12.60
2022-09-24T01:37:10.249Z,12.50
2022-09-24T01:39:40.142Z,12.60
2022-09-24T01:42:11.052Z,12.50
2022-09-24T01:44:42.437Z,12.50
2022-09-24T01:47:13.130Z,12.50
2022-09-24T01:49:41.314Z,12.70
2022-09-24T01:52:11.674Z,12.50
2022-09-24T01:54:43.470Z,12.40
2022-09-24T01:57:16.744Z,12.30
2022-09-24T01:59:50.264Z,12.30
2022-09-24T02:02:27.689Z,12.40
2022-09-24T02:05:00.714Z,12.40
2022-09-24T02:07:34.844Z,12.30
2022-09-24T02:10:03.191Z,12.20
2022-09-24T02:12:37.910Z,12.20
2022-09-24T02:15:11.466Z,12.30
2022-09-24T02:17:41.781Z,12.40
2022-09-24T02:20:14.335Z,12.60
2022-09-24T02:22:44.268Z,12.70
2022-09-24T02:25:16.483Z,12.70
2022-09-24T02:27:44.764Z,12.60
2022-09-24T02:30:14.744Z,12.50
2022-09-24T02:32:44.390Z,12.50
2022-09-24T02:35:12.757Z,12.50
2022-09-24T02:37:43.601Z,12.60
2022-09-24T02:40:14.380Z,12.50
2022-09-24T02:42:43.515Z,12.50
2022-09-24T02:45:14.588Z,12.60
2022-09-24T02:47:42.658Z,12.70
2022-09-24T02:50:11.231Z,12.60
2022-09-24T02:52:39.264Z,12.60
2022-09-24T02:55:07.776Z,12.70
2022-09-24T02:57:35.959Z,12.80
2022-09-24T03:00:06.030Z,12.90
2022-09-24T03:02:35.619Z,12.80
2022-09-24T03:05:03.775Z,12.80
2022-09-24T03:07:31.800Z,12.70
2022-09-24T03:09:59.914Z,12.70
2022-09-24T03:12:27.953Z,12.60
2022-09-24T03:14:56.027Z,12.60
2022-09-24T03:17:24.055Z,12.70
2022-09-24T03:19:53.549Z,12.70
2022-09-24T03:22:21.880Z,12.70
2022-09-24T03:24:49.978Z,12.60
2022-09-24T03:27:18.034Z,12.60
2022-09-24T03:30:03.443Z,12.60
2022-09-24T03:32:33.791Z,12.50
2022-09-24T03:35:03.403Z,12.40
2022-09-24T03:37:32.851Z,12.40
2022-09-24T03:40:01.187Z,12.40
2022-09-24T03:42:29.211Z,12.40
2022-09-24T03:44:57.272Z,12.60
2022-09-24T03:47:25.308Z,12.60
2022-09-24T03:49:53.451Z,12.40
2022-09-24T03:52:22.829Z,12.40
2022-09-24T03:54:51.372Z,12.50
2022-09-24T03:57:19.542Z,12.50
2022-09-24T03:59:47.765Z,12.50
2022-09-24T04:02:15.913Z,12.50
2022-09-24T04:04:43.993Z,12.50
2022-09-24T04:07:12.280Z,12.60
2022-09-24T04:09:41.838Z,12.50
2022-09-24T04:12:09.907Z,12.50
2022-09-24T04:14:38.383Z,12.60
2022-09-24T04:17:06.696Z,12.70
2022-09-24T04:19:34.803Z,12.70
2022-09-24T04:22:02.914Z,12.70
2022-09-24T04:24:30.951Z,12.70
2022-09-24T04:27:00.370Z,12.70
2022-09-24T04:29:28.438Z,12.60
2022-09-24T04:31:57.528Z,12.60
2022-09-24T04:34:25.653Z,12.60
2022-09-24T04:36:53.760Z,12.60
2022-09-24T04:39:26.590Z,12.40
2022-09-24T04:41:54.631Z,12.40
2022-09-24T04:44:24.413Z,12.40
2022-09-24T04:46:52.704Z,12.50
2022-09-24T04:49:20.962Z,12.40
2022-09-24T04:51:49.024Z,12.50
2022-09-24T04:54:18.162Z,12.60
2022-09-24T04:56:46.258Z,12.50
2022-09-24T04:59:14.286Z,12.40
2022-09-24T05:01:43.715Z,12.50
2022-09-24T05:04:11.813Z,12.50
2022-09-24T05:06:39.887Z,12.40
2022-09-24T05:09:12.308Z,12.50
2022-09-24T05:11:40.682Z,12.50
2022-09-24T05:14:08.787Z,12.50
2022-09-24T05:16:36.903Z,12.60
2022-09-24T05:19:06.361Z,12.60
2022-09-24T05:21:34.438Z,12.60
2022-09-24T05:24:02.752Z,12.60
2022-09-24T05:26:48.349Z,12.60
2022-09-24T05:29:16.438Z,12.60
2022-09-24T05:31:44.524Z,12.50
2022-09-24T05:34:14.756Z,12.60
2022-09-24T05:36:44.002Z,12.60
2022-09-24T05:39:13.023Z,12.60
2022-09-24T05:41:41.899Z,12.70
2022-09-24T05:44:11.136Z,12.80
2022-09-24T05:46:39.239Z,12.90
2022-09-24T05:49:07.357Z,12.80
2022-09-24T05:51:36.837Z,12.80
2022-09-24T05:54:05.179Z,12.70
2022-09-24T05:56:33.277Z,12.70
2022-09-24T05:59:01.621Z,12.80
2022-09-24T06:01:31.018Z,12.90
2022-09-24T06:03:59.196Z,12.90
2022-09-24T06:06:27.855Z,12.90
2022-09-24T06:08:57.710Z,13.00
2022-09-24T06:11:25.988Z,12.90
2022-09-24T06:13:54.033Z,12.90
2022-09-24T06:16:22.232Z,13.10
2022-09-24T06:18:50.446Z,13.20
2022-09-24T06:21:18.877Z,13.30
2022-09-24T06:23:47.267Z,13.20
2022-09-24T06:26:16.710Z,13.20
2022-09-24T06:28:44.737Z,13.40
2022-09-24T06:31:13.054Z,13.60
2022-09-24T06:33:41.472Z,13.70
2022-09-24T06:36:10.503Z,13.60
2022-09-24T06:38:40.614Z,13.70
2022-09-24T06:41:09.652Z,13.60
2022-09-24T06:43:39.283Z,13.70
2022-09-24T06:46:07.632Z,13.70
2022-09-24T06:48:38.145Z,13.70
2022-09-24T06:51:06.720Z,13.80
2022-09-24T06:53:34.934Z,13.90
2022-09-24T06:56:03.599Z,14.00
2022-09-24T06:58:31.721Z,14.00
2022-09-24T07:01:03.511Z,14.10
2022-09-24T07:03:33.284Z,14.10
2022-09-24T07:06:03.198Z,14.10
2022-09-24T07:08:31.567Z,14.20
2022-09-24T07:11:00.226Z,14.20
2022-09-24T07:13:28.507Z,14.20
2022-09-24T07:15:56.592Z,14.20
2022-09-24T07:18:26.122Z,14.30
2022-09-24T07:20:54.550Z,14.30
2022-09-24T07:23:23.274Z,14.30
2022-09-24T07:25:55.958Z,14.40
2022-09-24T07:28:24.290Z,14.40
2022-09-24T07:30:58.393Z,14.50
2022-09-24T07:33:28.215Z,14.50
2022-09-24T07:35:56.316Z,14.50
2022-09-24T07:38:25.419Z,14.40
2022-09-24T07:40:54.291Z,14.50
2022-09-24T07:43:22.741Z,14.60
2022-09-24T07:45:50.945Z,14.60
2022-09-24T07:48:19.211Z,14.60
2022-09-24T07:50:48.702Z,14.60
2022-09-24T07:53:16.995Z,14.60
2022-09-24T07:55:45.413Z,14.70
2022-09-24T07:58:15.012Z,14.70
2022-09-24T08:00:43.737Z,14.70
2022-09-24T08:03:12.049Z,14.80
2022-09-24T08:05:45.311Z,14.80
2022-09-24T08:08:15.980Z,14.80
2022-09-24T08:10:44.144Z,14.80
2022-09-24T08:13:12.336Z,14.80
2022-09-24T08:15:40.641Z,14.80
2022-09-24T08:18:09.047Z,14.80
2022-09-24T08:20:39.209Z,14.80
2022-09-24T08:23:11.116Z,14.90
2022-09-24T08:25:40.563Z,14.90
2022-09-24T08:28:11.338Z,14.80
2022-09-24T08:30:40.950Z,14.80
2022-09-24T08:33:09.552Z,14.70
2022-09-24T08:35:40.041Z,14.80
2022-09-24T08:38:09.019Z,14.70
2022-09-24T08:40:43.988Z,14.70
2022-09-24T08:43:30.102Z,14.70
2022-09-24T08:46:18.131Z,14.70
2022-09-24T08:48:51.504Z,14.70
2022-09-24T08:51:23.255Z,14.80
2022-09-24T08:53:56.574Z,14.80
2022-09-24T08:56:28.659Z,14.70
2022-09-24T08:59:00.393Z,14.70
2022-09-24T09:01:38.362Z,14.80
2022-09-24T09:04:20.096Z,14.80
2022-09-24T09:07:08.505Z,14.70
2022-09-24T09:09:45.786Z,14.80
2022-09-24T09:12:18.937Z,14.80
2022-09-24T09:14:51.926Z,14.70
2022-09-24T09:17:32.879Z,14.60
2022-09-24T09:20:04.803Z,14.70
2022-09-24T09:22:38.750Z,14.70
2022-09-24T09:25:18.285Z,14.70
2022-09-24T09:27:50.950Z,14.70
2022-09-24T09:30:21.911Z,14.70
2022-09-24T09:33:17.208Z,14.70
2022-09-24T09:35:53.855Z,14.70
2022-09-24T09:38:26.436Z,14.90
2022-09-24T09:41:04.217Z,14.90
2022-09-24T09:43:34.199Z,14.80
2022-09-24T09:46:12.124Z,14.90
2022-09-24T09:48:46.293Z,14.90
2022-09-24T09:51:22.619Z,15.00
2022-09-24T09:53:58.781Z,15.10
2022-09-24T09:56:29.604Z,15.20
2022-09-24T09:59:08.099Z,15.20
2022-09-24T10:01:40.681Z,15.20
2022-09-24T10:04:28.928Z,15.20
2022-09-24T10:07:06.041Z,15.20
2022-09-24T10:09:34.458Z,15.20
2022-09-24T10:12:17.500Z,15.20
2022-09-24T10:14:59.062Z,15.20
2022-09-24T10:17:31.625Z,15.20
2022-09-24T10:20:02.160Z,15.10
2022-09-24T10:22:32.073Z,15.20
2022-09-24T10:25:02.139Z,15.20
2022-09-24T10:27:35.044Z,15.10
2022-09-24T10:30:31.329Z,15.10
2022-09-24T10:33:00.283Z,14.90
2022-09-24T10:35:30.419Z,15.00
2022-09-24T10:38:00.629Z,15.00
2022-09-24T10:40:31.288Z,15.00
2022-09-24T10:43:01.658Z,15.10
2022-09-24T10:45:53.598Z,15.00
2022-09-24T10:48:27.259Z,15.00
2022-09-24T10:51:04.074Z,15.10
2022-09-24T10:53:43.271Z,15.10
2022-09-24T10:56:23.782Z,15.20
2022-09-24T10:59:20.298Z,15.40
2022-09-24T11:02:01.313Z,15.40
2022-09-24T11:04:44.499Z,15.60
2022-09-24T11:07:37.795Z,15.60
2022-09-24T11:10:18.035Z,15.60
2022-09-24T11:12:59.750Z,15.60
2022-09-24T11:15:44.622Z,15.50
2022-09-24T11:18:29.021Z,15.70
2022-09-24T11:21:04.297Z,15.60
2022-09-24T11:24:07.700Z,15.80
2022-09-24T11:26:49.510Z,15.80
2022-09-24T11:29:36.840Z,15.70
2022-09-24T11:32:11.933Z,15.90
2022-09-24T11:35:08.116Z,16.10
2022-09-24T11:37:53.810Z,16.20
2022-09-24T11:40:32.689Z,16.30
2022-09-24T11:43:15.597Z,16.20
2022-09-24T11:45:53.361Z,16.20
2022-09-24T11:48:46.218Z,16.00
2022-09-24T11:51:32.707Z,16.00
2022-09-24T11:54:08.385Z,15.90
2022-09-24T11:56:41.156Z,16.00
2022-09-24T11:59:18.454Z,16.00
2022-09-24T12:01:52.544Z,16.00
2022-09-24T12:04:26.125Z,16.00
2022-09-24T12:07:00.678Z,16.00
2022-09-24T12:09:34.527Z,16.00
2022-09-24T12:12:07.923Z,16.00
2022-09-24T12:14:46.363Z,16.00
2022-09-24T12:17:20.103Z,16.00
2022-09-24T12:19:54.997Z,16.00
2022-09-24T12:22:27.314Z,16.00
2022-09-24T12:24:58.478Z,16.00
2022-09-24T12:27:32.390Z,16.00
2022-09-24T12:30:23.696Z,15.90
2022-09-24T12:32:59.818Z,15.90
2022-09-24T12:35:48.553Z,15.90
2022-09-24T12:38:21.251Z,16.00
2022-09-24T12:41:19.974Z,16.00
2022-09-24T12:43:52.644Z,16.00
2022-09-24T12:46:23.992Z,16.00
2022-09-24T12:48:54.352Z,16.00
2022-09-24T12:51:24.029Z,16.00
2022-09-24T12:54:18.472Z,16.00
2022-09-24T12:56:46.767Z,16.00
2022-09-24T12:59:26.302Z,16.00
2022-09-24T13:01:54.759Z,16.00
2022-09-24T13:04:31.691Z,16.00
2022-09-24T13:06:59.953Z,16.00
2022-09-24T13:09:35.488Z,15.90
2022-09-24T13:12:06.782Z,15.90
2022-09-24T13:14:36.166Z,15.90
2022-09-24T13:17:07.904Z,15.90
2022-09-24T13:19:38.872Z,15.90
2022-09-24T13:22:08.254Z,15.90
2022-09-24T13:24:50.786Z,16.00
2022-09-24T13:27:25.777Z,16.10
2022-09-24T13:30:20.265Z,16.20
2022-09-24T13:32:57.156Z,16.10
2022-09-24T13:35:29.278Z,16.10
2022-09-24T13:38:04.861Z,16.10
2022-09-24T13:40:38.855Z,16.00
2022-09-24T13:43:13.357Z,16.00
2022-09-24T13:45:45.246Z,16.10
2022-09-24T13:48:20.634Z,16.20
2022-09-24T13:50:52.145Z,16.40
2022-09-24T13:53:25.292Z,16.40
2022-09-24T13:55:58.279Z,16.40
2022-09-24T13:58:30.391Z,16.30
2022-09-24T14:00:59.922Z,16.30
2022-09-24T14:03:32.637Z,16.30
2022-09-24T14:06:01.431Z,16.40
2022-09-24T14:08:31.057Z,16.40
2022-09-24T14:11:09.773Z,16.40
2022-09-24T14:13:45.698Z,16.40
2022-09-24T14:16:17.875Z,16.50
2022-09-24T14:18:46.156Z,16.40
2022-09-24T14:21:22.505Z,16.50
2022-09-24T14:23:55.185Z,16.40
2022-09-24T14:26:32.230Z,16.30
2022-09-24T14:29:04.710Z,16.20
2022-09-24T14:31:32.933Z,16.20
2022-09-24T14:34:03.521Z,16.20
2022-09-24T14:36:31.671Z,16.30
2022-09-24T14:39:02.966Z,16.40
2022-09-24T14:41:35.352Z,16.40
2022-09-24T14:44:07.798Z,16.40
2022-09-24T14:46:39.158Z,16.40
2022-09-24T14:49:17.744Z,16.40
2022-09-24T14:51:52.962Z,16.50
2022-09-24T14:54:27.535Z,16.40
2022-09-24T14:56:57.030Z,16.40
2022-09-24T14:59:30.653Z,16.40
2022-09-24T15:02:17.676Z,16.40
2022-09-24T15:04:48.540Z,16.40
2022-09-24T15:07:22.869Z,16.50
2022-09-24T15:09:52.949Z,16.50
2022-09-24T15:12:30.686Z,16.30
2022-09-24T15:15:01.001Z,16.30
2022-09-24T15:17:33.223Z,16.40
2022-09-24T15:20:01.862Z,16.40
2022-09-24T15:22:31.821Z,16.50
2022-09-24T15:25:02.337Z,16.50
2022-09-24T15:27:33.569Z,16.50
2022-09-24T15:30:04.737Z,16.60
2022-09-24T15:32:35.114Z,16.50
2022-09-24T15:35:08.270Z,16.50
2022-09-24T15:37:39.405Z,16.50
2022-09-24T15:40:09.903Z,16.50
2022-09-24T15:42:39.558Z,16.60
2022-09-24T15:45:16.225Z,16.60
2022-09-24T15:47:44.348Z,16.60
2022-09-24T15:50:12.918Z,16.60
2022-09-24T15:52:46.585Z,16.40
2022-09-24T15:55:17.799Z,16.40
2022-09-24T15:57:47.859Z,16.50
2022-09-24T16:00:18.355Z,16.40
2022-09-24T16:02:49.715Z,16.50
2022-09-24T16:05:18.144Z,16.50
2022-09-24T16:07:46.687Z,16.60
2022-09-24T16:10:15.815Z,16.60
2022-09-24T16:12:44.310Z,16.60
2022-09-24T16:15:16.743Z,16.60
2022-09-24T16:17:45.287Z,16.60
2022-09-24T16:20:13.712Z,16.50
2022-09-24T16:22:41.770Z,16.40
2022-09-24T16:25:10.084Z,16.40
2022-09-24T16:27:38.581Z,16.40
2022-09-24T16:30:08.308Z,16.30
2022-09-24T16:32:37.805Z,16.20
2022-09-24T16:35:06.568Z,16.20
2022-09-24T16:37:34.664Z,16.10
2022-09-24T16:40:03.253Z,16.00
2022-09-24T16:42:31.325Z,16.00
2022-09-24T16:44:59.365Z,16.10
2022-09-24T16:47:27.525Z,16.00
2022-09-24T16:49:56.963Z,16.00
2022-09-24T16:52:25.344Z,16.00
2022-09-24T16:54:53.394Z,16.00
2022-09-24T16:57:21.494Z,15.90
2022-09-24T16:59:49.621Z,15.80
2022-09-24T17:02:18.342Z,15.90
2022-09-24T17:04:46.477Z,15.80
2022-09-24T17:07:15.948Z,15.70
2022-09-24T17:10:01.330Z,15.70
2022-09-24T17:12:29.583Z,15.80
2022-09-24T17:14:57.877Z,15.50
2022-09-24T17:17:25.973Z,15.60
2022-09-24T17:19:54.058Z,15.60
2022-09-24T17:22:23.637Z,15.50
2022-09-24T17:24:52.461Z,15.60
2022-09-24T17:27:20.710Z,15.50
2022-09-24T17:29:48.835Z,15.40
2022-09-24T17:32:16.985Z,15.40
2022-09-24T17:34:45.994Z,15.30
2022-09-24T17:37:14.405Z,15.30
2022-09-24T17:39:43.901Z,15.40
2022-09-24T17:42:11.959Z,15.40
2022-09-24T17:44:40.071Z,15.40
2022-09-24T17:47:08.225Z,15.40
2022-09-24T17:49:36.355Z,15.40
2022-09-24T17:52:04.960Z,15.30
2022-09-24T17:54:33.223Z,15.30
2022-09-24T17:57:03.022Z,15.30
2022-09-24T17:59:31.149Z,15.20
2022-09-24T18:01:59.366Z,15.20
2022-09-24T18:04:31.090Z,15.20
2022-09-24T18:06:59.269Z,15.30
2022-09-24T18:09:27.432Z,15.30
2022-09-24T18:11:56.829Z,15.30
2022-09-24T18:14:26.449Z,15.20
2022-09-24T18:16:54.600Z,15.20
2022-09-24T18:19:23.111Z,15.20
2022-09-24T18:21:51.282Z,15.20
2022-09-24T18:24:19.453Z,15.20
2022-09-24T18:26:51.463Z,15.20
2022-09-24T18:29:21.196Z,15.20
2022-09-24T18:31:51.421Z,15.20
2022-09-24T18:34:19.604Z,15.20
2022-09-24T18:36:47.702Z,15.20
2022-09-24T18:39:21.860Z,15.30
2022-09-24T18:41:52.167Z,15.20
2022-09-24T18:44:20.754Z,15.10
2022-09-24T18:46:50.349Z,15.10
2022-09-24T18:49:19.417Z,15.10
2022-09-24T18:51:47.692Z,15.00
2022-09-24T18:54:18.144Z,15.00
2022-09-24T18:56:47.320Z,15.00
2022-09-24T18:59:18.022Z,15.00
2022-09-24T19:01:48.002Z,15.00
2022-09-24T19:04:18.161Z,15.00
2022-09-24T19:06:48.229Z,15.00
2022-09-24T19:09:17.842Z,15.00
2022-09-24T19:11:46.533Z,15.00
2022-09-24T19:14:18.499Z,15.00
2022-09-24T19:16:47.353Z,14.90
2022-09-24T19:19:17.320Z,14.90
2022-09-24T19:21:45.482Z,14.90
2022-09-24T19:24:13.679Z,14.80
2022-09-24T19:26:42.082Z,14.80
2022-09-24T19:29:10.225Z,14.90
2022-09-24T19:31:40.834Z,14.90
2022-09-24T19:34:11.934Z,14.90
2022-09-24T19:36:44.935Z,14.90
2022-09-24T19:39:15.222Z,14.90
2022-09-24T19:41:44.148Z,14.90
2022-09-24T19:44:12.819Z,14.90
2022-09-24T19:46:41.380Z,14.80
2022-09-24T19:49:09.804Z,14.70
2022-09-24T19:51:38.522Z,14.80
2022-09-24T19:54:09.441Z,14.80
2022-09-24T19:56:38.420Z,14.80
2022-09-24T19:59:07.990Z,14.80
2022-09-24T20:01:36.362Z,14.80
2022-09-24T20:04:06.631Z,14.80
2022-09-24T20:06:36.966Z,14.90
2022-09-24T20:09:07.394Z,15.00
2022-09-24T20:11:36.157Z,14.90
2022-09-24T20:14:06.062Z,14.90
2022-09-24T20:16:34.426Z,14.90
2022-09-24T20:19:04.263Z,14.80
2022-09-24T20:21:35.358Z,14.90
2022-09-24T20:24:04.840Z,14.70
2022-09-24T20:26:52.749Z,14.70
2022-09-24T20:29:22.594Z,14.80
2022-09-24T20:31:55.565Z,14.80
2022-09-24T20:34:33.919Z,14.70
2022-09-24T20:37:02.988Z,14.60
2022-09-24T20:39:32.577Z,14.50
2022-09-24T20:42:03.748Z,14.50
2022-09-24T20:44:32.181Z,14.50
2022-09-24T20:47:00.842Z,14.50
2022-09-24T20:49:29.981Z,14.50
2022-09-24T20:51:58.341Z,14.40
2022-09-24T20:54:28.514Z,14.30
2022-09-24T20:56:57.380Z,14.30
2022-09-24T20:59:27.458Z,14.20
2022-09-24T21:01:56.035Z,14.20
2022-09-24T21:04:24.709Z,14.20
2022-09-24T21:06:54.635Z,14.10
2022-09-24T21:09:22.838Z,14.20
2022-09-24T21:11:54.328Z,14.10
2022-09-24T21:14:23.225Z,14.20
2022-09-24T21:16:55.107Z,14.20
2022-09-24T21:19:23.825Z,14.20
2022-09-24T21:21:52.257Z,14.30
2022-09-24T21:24:20.780Z,14.20
2022-09-24T21:26:49.066Z,14.30
2022-09-24T21:29:20.775Z,14.20
2022-09-24T21:31:49.601Z,14.20
2022-09-24T21:34:21.776Z,14.30
2022-09-24T21:36:50.099Z,14.20
2022-09-24T21:39:20.282Z,14.20
2022-09-24T21:41:50.233Z,14.20
2022-09-24T21:44:19.601Z,14.20
2022-09-24T21:46:50.951Z,14.20
2022-09-24T21:49:20.966Z,14.20
2022-09-24T21:51:49.558Z,14.10
2022-09-24T21:54:18.984Z,14.20
2022-09-24T21:56:47.725Z,14.30
2022-09-24T21:59:33.969Z,14.20
2022-09-24T22:02:02.442Z,14.20
2022-09-24T22:04:33.508Z,14.10
2022-09-24T22:07:02.053Z,14.10
2022-09-24T22:09:30.307Z,14.10
2022-09-24T22:12:00.879Z,14.00
2022-09-24T22:14:29.495Z,13.90
2022-09-24T22:16:58.019Z,13.90
2022-09-24T22:19:26.316Z,13.90
2022-09-24T22:21:55.971Z,14.00
2022-09-24T22:24:24.207Z,13.90
2022-09-24T22:26:54.092Z,13.90
2022-09-24T22:29:22.924Z,13.80
2022-09-24T22:31:51.034Z,13.80
2022-09-24T22:34:36.667Z,13.80
2022-09-24T22:37:07.596Z,13.90
2022-09-24T22:39:36.334Z,13.90
2022-09-24T22:42:05.085Z,13.80
2022-09-24T22:44:33.304Z,13.70
2022-09-24T22:47:01.349Z,13.70
2022-09-24T22:49:29.433Z,13.60
2022-09-24T22:51:57.460Z,13.50
2022-09-24T22:54:26.999Z,13.50
2022-09-24T22:56:55.208Z,13.40
2022-09-24T22:59:23.287Z,13.50
2022-09-24T23:01:51.482Z,13.60
2022-09-24T23:04:20.595Z,13.60
2022-09-24T23:06:48.804Z,13.60
2022-09-24T23:09:16.899Z,13.60
2022-09-24T23:11:46.519Z,13.60
2022-09-24T23:14:16.840Z,13.60
2022-09-24T23:16:45.184Z,13.50
2022-09-24T23:19:15.516Z,13.50
2022-09-24T23:21:44.011Z,13.50
2022-09-24T23:24:16.209Z,13.50
2022-09-24T23:26:46.442Z,13.60
2022-09-24T23:29:15.508Z,13.50
2022-09-24T23:31:43.659Z,13.50
2022-09-24T23:34:14.178Z,13.50
2022-09-24T23:36:46.169Z,13.50
2022-09-24T23:39:14.347Z,13.50
2022-09-24T23:41:42.528Z,13.50
2022-09-24T23:44:12.284Z,13.50
2022-09-24T23:46:40.530Z,13.50
2022-09-24T23:49:08.704Z,13.50
2022-09-24T23:51:36.814Z,13.50
2022-09-24T23:54:05.242Z,13.50
2022-09-24T23:56:33.504Z,13.50
2022-09-24T23:59:01.639Z,13.50
